Time;durP1;ratioP1;P1;durP2;ratioP2;P2;SDS_P1;SDS_P2;PMS_P1;PMS_P2;Temp;Humidity;BMP_temperature;BMP_pressure;BME280_temperature;BME280_humidity;BME280_pressure;Samples;Min_cycle;Max_cycle;Signal;HPM_P1;HPM_P2
2022/07/11 00:02:06;;;;;;;2.33;1.75;;;23.40;99.90;;;;;;5075977;28;20046;-73
2022/07/11 00:04:33;;;;;;;4.72;2.47;;;23.40;99.90;;;;;;5078644;28;20026;-73
2022/07/11 00:07:00;;;;;;;3.25;2.58;;;23.30;99.90;;;;;;5079040;28;20032;-72
2022/07/11 00:09:26;;;;;;;1.92;1.83;;;23.30;99.90;;;;;;5082489;28;20035;-72
2022/07/11 00:11:52;;;;;;;2.58;1.90;;;23.30;99.90;;;;;;5076232;28;20036;-72
2022/07/11 00:14:18;;;;;;;2.22;2.08;;;23.30;99.90;;;;;;5076738;28;20360;-72
2022/07/11 00:16:45;;;;;;;1.67;1.58;;;23.20;99.90;;;;;;5081138;28;20047;-71
2022/07/11 00:19:10;;;;;;;2.60;2.00;;;23.30;99.90;;;;;;5074791;28;20016;-72
2022/07/11 00:21:36;;;;;;;1.80;1.70;;;23.30;99.90;;;;;;5075364;28;20193;-72
2022/07/11 00:24:09;;;;;;;1.80;1.70;;;23.30;99.90;;;;;;5080447;28;20029;-73
2022/07/11 00:26:35;;;;;;;1.83;1.73;;;23.30;99.90;;;;;;5088692;28;20040;-72
2022/07/11 00:29:02;;;;;;;5.50;1.92;;;23.30;99.90;;;;;;5083002;28;20024;-72
2022/07/11 00:31:31;;;;;;;2.13;1.90;;;23.30;99.90;;;;;;5082337;28;20055;-71
2022/07/11 00:33:58;;;;;;;3.30;1.75;;;23.20;99.90;;;;;;5075414;28;20032;-73
2022/07/11 00:36:24;;;;;;;2.40;2.20;;;23.10;99.90;;;;;;5096384;28;20035;-73
2022/07/11 00:38:53;;;;;;;1.92;1.65;;;23.10;99.90;;;;;;5075907;28;20020;-72
2022/07/11 00:41:19;;;;;;;2.00;1.90;;;23.10;99.90;;;;;;5080087;28;20016;-73
2022/07/11 00:43:53;;;;;;;1.75;1.65;;;23.10;99.90;;;;;;5080549;28;20368;-72
2022/07/11 00:46:19;;;;;;;2.05;1.83;;;23.00;99.90;;;;;;5074959;28;20040;-73
2022/07/11 00:48:49;;;;;;;2.10;1.90;;;23.00;99.90;;;;;;5081623;28;20028;-72
2022/07/11 00:51:18;;;;;;;2.08;1.70;;;23.00;99.90;;;;;;5074660;28;20115;-73
2022/07/11 00:53:44;;;;;;;1.73;1.63;;;23.00;99.90;;;;;;5078570;28;20495;-72
2022/07/11 00:56:10;;;;;;;1.77;1.67;;;23.10;99.90;;;;;;5079107;28;20048;-74
2022/07/11 00:58:37;;;;;;;1.92;1.83;;;23.00;99.90;;;;;;5080837;28;20025;-74
2022/07/11 01:01:04;;;;;;;2.35;2.15;;;23.00;99.90;;;;;;5071293;28;20492;-74
2022/07/11 01:03:35;;;;;;;2.58;1.83;;;22.90;99.90;;;;;;5077330;28;20020;-73
2022/07/11 01:06:06;;;;;;;1.75;1.48;;;22.90;99.90;;;;;;5079182;28;20024;-73
2022/07/11 01:08:35;;;;;;;2.50;1.80;;;22.90;99.90;;;;;;5080654;28;20039;-73
2022/07/11 01:11:09;;;;;;;1.90;1.80;;;22.90;99.90;;;;;;5074187;28;20368;-73
2022/07/11 01:13:34;;;;;;;1.50;1.40;;;23.00;99.90;;;;;;5076953;28;20647;-74
2022/07/11 01:16:10;;;;;;;2.95;1.67;;;23.10;99.90;;;;;;5076725;28;20058;-72
2022/07/11 01:18:36;;;;;;;1.70;1.58;;;23.00;99.90;;;;;;5077129;28;20051;-72
2022/07/11 01:21:10;;;;;;;2.65;2.00;;;22.90;99.90;;;;;;5079015;28;20623;-72
2022/07/11 01:23:36;;;;;;;1.50;1.40;;;22.90;99.90;;;;;;5077635;28;20105;-73
2022/07/11 01:26:02;;;;;;;1.55;1.45;;;22.90;99.90;;;;;;5076096;28;20056;-73
2022/07/11 01:28:27;;;;;;;2.50;1.85;;;22.90;99.90;;;;;;5076671;28;20150;-73
2022/07/11 01:30:53;;;;;;;2.60;2.40;;;22.90;99.90;;;;;;5078764;28;20031;-75
2022/07/11 01:33:19;;;;;;;1.75;1.65;;;22.90;99.90;;;;;;5075845;28;20115;-73
2022/07/11 01:35:44;;;;;;;3.22;2.03;;;22.80;99.90;;;;;;5082834;28;20047;-72
2022/07/11 01:38:10;;;;;;;2.70;1.98;;;22.80;99.90;;;;;;5073097;28;20158;-72
2022/07/11 01:40:36;;;;;;;2.40;1.85;;;22.80;99.90;;;;;;5075378;28;20044;-72
2022/07/11 01:43:01;;;;;;;2.45;1.70;;;22.80;99.90;;;;;;5079689;28;20021;-74
2022/07/11 01:45:28;;;;;;;1.95;1.85;;;22.80;99.90;;;;;;5075120;28;20039;-75
2022/07/11 01:47:54;;;;;;;1.83;1.73;;;22.70;99.90;;;;;;5079611;28;20051;-72
2022/07/11 01:50:20;;;;;;;5.38;1.73;;;22.70;99.90;;;;;;5083009;28;20042;-71
2022/07/11 01:52:45;;;;;;;2.08;1.92;;;22.70;99.90;;;;;;5081412;28;20086;-71
2022/07/11 01:55:12;;;;;;;3.45;1.95;;;22.70;99.90;;;;;;5089492;28;20039;-72
2022/07/11 01:57:38;;;;;;;3.05;1.60;;;22.70;99.90;;;;;;5079435;28;20024;-75
2022/07/11 02:00:07;;;;;;;1.48;1.35;;;22.70;99.90;;;;;;5076571;28;20025;-73
2022/07/11 02:02:32;;;;;;;4.03;1.88;;;22.70;99.90;;;;;;5075939;28;20414;-73
2022/07/11 02:04:58;;;;;;;4.38;2.03;;;22.80;99.90;;;;;;5076513;28;20020;-74
2022/07/11 02:10:08;;;;;;;2.10;1.90;;;22.70;99.90;;;;;;5078465;28;20050;-72
2022/07/11 02:12:34;;;;;;;1.60;1.33;;;22.60;99.90;;;;;;5081063;28;20653;-72
2022/07/11 02:15:00;;;;;;;1.88;1.77;;;22.60;99.90;;;;;;5077641;28;20077;-73
2022/07/11 02:17:26;;;;;;;2.45;2.00;;;22.60;99.90;;;;;;5077382;28;20013;-73
2022/07/11 02:19:53;;;;;;;1.63;1.30;;;22.60;99.90;;;;;;5071012;28;20034;-73
2022/07/11 02:22:19;;;;;;;1.95;1.45;;;22.60;99.90;;;;;;5088034;28;20054;-73
2022/07/11 02:24:45;;;;;;;5.68;1.98;;;22.70;99.90;;;;;;5074692;28;20094;-73
2022/07/11 02:27:10;;;;;;;1.98;1.40;;;22.80;99.90;;;;;;5074959;28;20115;-73
2022/07/11 02:29:36;;;;;;;1.85;1.75;;;22.70;99.90;;;;;;5077837;28;20039;-73
2022/07/11 02:32:03;;;;;;;1.88;1.75;;;22.60;99.90;;;;;;5075989;28;20028;-75
2022/07/11 02:34:28;;;;;;;1.50;1.40;;;22.70;99.90;;;;;;5077425;28;20104;-73
2022/07/11 02:36:54;;;;;;;2.08;1.83;;;22.70;99.90;;;;;;5077279;28;20159;-73
2022/07/11 02:39:20;;;;;;;2.97;1.88;;;22.80;99.90;;;;;;5074943;28;20078;-74
2022/07/11 02:41:46;;;;;;;1.63;1.52;;;22.70;99.90;;;;;;5076954;28;20023;-73
2022/07/11 02:44:11;;;;;;;5.57;2.08;;;22.60;99.90;;;;;;5071749;28;20725;-74
2022/07/11 02:46:37;;;;;;;1.70;1.60;;;22.50;99.90;;;;;;5075433;28;20121;-72
2022/07/11 02:49:03;;;;;;;1.98;1.88;;;22.50;99.90;;;;;;5073457;28;20050;-73
2022/07/11 02:51:29;;;;;;;1.58;1.48;;;22.60;99.90;;;;;;5076635;28;20427;-73
2022/07/11 02:53:54;;;;;;;2.85;1.77;;;22.60;99.90;;;;;;5078060;28;20644;-72
2022/07/11 02:56:20;;;;;;;2.15;1.40;;;22.70;99.90;;;;;;5074658;28;20114;-73
2022/07/11 02:58:46;;;;;;;2.08;1.88;;;22.70;99.90;;;;;;5073756;28;20143;-73
2022/07/11 03:01:11;;;;;;;2.95;1.48;;;22.80;99.90;;;;;;5078252;28;20024;-74
2022/07/11 03:03:37;;;;;;;3.00;1.88;;;22.70;99.90;;;;;;5076036;28;20035;-73
2022/07/11 03:06:03;;;;;;;1.55;1.33;;;22.60;99.90;;;;;;5077021;28;20081;-73
2022/07/11 03:08:29;;;;;;;1.90;1.80;;;22.60;99.90;;;;;;5080545;28;20063;-74
2022/07/11 03:10:55;;;;;;;2.35;1.63;;;22.60;99.90;;;;;;5073760;28;20056;-73
2022/07/11 03:13:21;;;;;;;1.25;1.20;;;22.50;99.90;;;;;;5078794;28;20481;-74
2022/07/11 03:15:46;;;;;;;4.45;1.55;;;22.40;99.90;;;;;;5080509;28;20039;-74
2022/07/11 03:18:12;;;;;;;2.17;1.33;;;22.40;99.90;;;;;;5078547;28;20024;-75
2022/07/11 03:20:38;;;;;;;3.08;1.20;;;22.40;99.90;;;;;;5081177;28;20032;-73
2022/07/11 03:23:03;;;;;;;2.45;1.17;;;22.40;99.90;;;;;;5088720;28;20059;-74
2022/07/11 03:25:29;;;;;;;4.63;1.40;;;22.40;99.90;;;;;;5086351;28;20025;-73
2022/07/11 03:27:55;;;;;;;2.08;1.63;;;22.40;99.90;;;;;;5083235;28;20080;-74
2022/07/11 03:30:21;;;;;;;1.85;1.73;;;22.30;99.90;;;;;;5093372;28;20072;-74
2022/07/11 03:32:47;;;;;;;2.25;1.85;;;22.30;99.90;;;;;;5088073;28;20032;-73
2022/07/11 03:37:57;;;;;;;3.90;2.95;;;21.90;99.90;;;;;;5088240;28;20078;-72
2022/07/11 03:40:22;;;;;;;6.70;1.80;;;22.00;99.90;;;;;;5093972;28;20040;-74
2022/07/11 03:42:48;;;;;;;3.05;1.40;;;22.00;99.90;;;;;;5089219;28;20090;-74
2022/07/11 03:45:14;;;;;;;3.75;1.70;;;22.00;99.90;;;;;;5084226;28;20025;-72
2022/07/11 03:47:40;;;;;;;2.85;1.77;;;22.10;99.90;;;;;;5083718;28;20024;-77
2022/07/11 03:50:06;;;;;;;3.80;1.83;;;22.10;99.90;;;;;;5080106;28;20036;-71
2022/07/11 03:52:32;;;;;;;2.75;1.80;;;22.10;99.90;;;;;;5074918;28;20037;-73
2022/07/11 03:54:58;;;;;;;2.88;1.63;;;22.10;99.90;;;;;;5075090;28;20035;-76
2022/07/11 03:57:24;;;;;;;2.17;1.10;;;22.10;99.90;;;;;;5076318;28;20029;-72
2022/07/11 03:59:49;;;;;;;3.00;1.95;;;22.20;99.90;;;;;;5074915;28;20107;-74
2022/07/11 04:02:15;;;;;;;2.20;1.85;;;22.20;99.90;;;;;;5082237;28;20088;-73
2022/07/11 04:04:41;;;;;;;1.48;1.30;;;22.10;99.90;;;;;;5076175;28;20051;-74
2022/07/11 04:07:07;;;;;;;3.47;1.52;;;22.20;99.90;;;;;;5083178;28;20099;-74
2022/07/11 04:09:32;;;;;;;4.38;1.70;;;22.10;99.90;;;;;;5088704;28;20063;-75
2022/07/11 04:11:58;;;;;;;3.22;1.55;;;22.10;99.90;;;;;;5078790;28;20025;-72
2022/07/11 04:14:24;;;;;;;5.20;1.85;;;22.10;99.90;;;;;;5076449;28;20027;-72
2022/07/11 04:16:51;;;;;;;2.03;1.73;;;22.20;99.90;;;;;;5076507;28;20024;-73
2022/07/11 04:19:16;;;;;;;3.22;2.28;;;22.10;99.90;;;;;;5078699;28;20043;-77
2022/07/11 04:21:42;;;;;;;1.30;1.20;;;22.10;99.90;;;;;;5076609;28;20052;-72
2022/07/11 04:24:08;;;;;;;4.15;1.55;;;22.10;99.90;;;;;;5080006;28;20028;-73
2022/07/11 04:26:33;;;;;;;1.67;1.50;;;22.00;99.90;;;;;;5079503;28;20054;-73
2022/07/11 04:28:59;;;;;;;2.00;1.63;;;21.90;99.90;;;;;;5077638;28;20059;-72
2022/07/11 04:31:25;;;;;;;2.33;1.95;;;22.00;99.90;;;;;;5080799;28;20029;-76
2022/07/11 04:33:51;;;;;;;4.43;2.15;;;21.90;99.90;;;;;;5074400;28;20025;-73
2022/07/11 04:36:17;;;;;;;2.67;1.70;;;21.90;99.90;;;;;;5080007;28;20071;-72
2022/07/11 04:38:46;;;;;;;2.63;1.40;;;22.00;99.90;;;;;;5078382;28;20031;-74
2022/07/11 04:41:11;;;;;;;1.98;1.23;;;22.00;99.90;;;;;;5076126;28;20020;-72
2022/07/11 04:43:38;;;;;;;2.25;1.13;;;22.00;99.90;;;;;;5077430;28;20073;-73
2022/07/11 04:46:05;;;;;;;1.95;1.73;;;22.00;99.90;;;;;;5078827;28;20074;-75
2022/07/11 04:48:31;;;;;;;4.20;1.00;;;22.00;99.90;;;;;;5077534;28;20035;-73
2022/07/11 04:50:57;;;;;;;3.47;1.75;;;22.00;99.90;;;;;;5078998;28;20028;-73
2022/07/11 04:53:23;;;;;;;3.28;1.95;;;21.90;99.90;;;;;;5075681;28;20062;-74
2022/07/11 04:55:49;;;;;;;3.55;1.38;;;21.80;99.90;;;;;;5077259;28;20037;-74
2022/07/11 04:58:15;;;;;;;2.97;1.38;;;21.90;99.90;;;;;;5076586;28;20062;-72
2022/07/11 05:00:41;;;;;;;4.32;1.48;;;21.90;99.90;;;;;;5078089;28;20028;-71
2022/07/11 05:03:07;;;;;;;2.50;1.33;;;22.00;99.90;;;;;;5078959;28;20031;-76
2022/07/11 05:05:33;;;;;;;2.72;1.45;;;22.00;99.90;;;;;;5078415;28;20029;-72
2022/07/11 05:07:59;;;;;;;2.60;1.42;;;22.00;99.90;;;;;;5084536;28;20016;-73
2022/07/11 05:10:25;;;;;;;1.55;1.42;;;22.00;99.90;;;;;;5075577;28;20050;-73
2022/07/11 05:12:51;;;;;;;3.47;1.40;;;22.00;99.90;;;;;;5077962;28;20024;-73
2022/07/11 05:15:16;;;;;;;2.05;1.48;;;22.00;99.90;;;;;;5077576;28;20028;-73
2022/07/11 05:17:42;;;;;;;3.83;1.67;;;22.00;99.90;;;;;;5076754;28;20029;-73
2022/07/11 05:20:08;;;;;;;2.17;1.80;;;22.00;99.90;;;;;;5073817;28;20026;-73
2022/07/11 05:22:34;;;;;;;5.53;1.05;;;22.00;99.90;;;;;;5077968;28;20026;-73
2022/07/11 05:25:00;;;;;;;8.45;2.05;;;22.00;99.90;;;;;;5075898;28;20489;-74
2022/07/11 05:27:25;;;;;;;5.22;1.80;;;22.10;99.90;;;;;;5081679;28;20032;-74
2022/07/11 05:29:51;;;;;;;1.75;1.20;;;22.10;99.90;;;;;;5078350;28;20348;-75
2022/07/11 05:32:17;;;;;;;2.30;2.10;;;22.00;99.90;;;;;;5082446;28;20025;-74
2022/07/11 05:34:42;;;;;;;5.43;3.30;;;21.80;99.90;;;;;;5080463;28;20510;-74
2022/07/11 05:37:08;;;;;;;5.38;1.27;;;21.80;99.90;;;;;;5081890;28;20073;-74
2022/07/11 05:39:34;;;;;;;1.77;1.17;;;21.80;99.90;;;;;;5087440;28;20017;-73
2022/07/11 05:42:00;;;;;;;2.75;1.33;;;21.60;99.90;;;;;;5090411;28;20016;-74
2022/07/11 05:44:25;;;;;;;5.88;1.73;;;21.60;99.90;;;;;;5074074;28;20448;-74
2022/07/11 05:46:51;;;;;;;1.40;1.30;;;21.60;99.90;;;;;;5084779;28;20987;-74
2022/07/11 05:49:17;;;;;;;3.65;1.15;;;21.70;99.90;;;;;;5082593;28;20027;-73
2022/07/11 05:51:43;;;;;;;1.35;1.00;;;21.70;99.90;;;;;;5086321;28;20021;-74
2022/07/11 05:54:08;;;;;;;2.72;1.45;;;21.80;99.90;;;;;;5071530;28;20101;-74
2022/07/11 05:56:34;;;;;;;1.67;0.82;;;21.90;99.90;;;;;;5073106;28;20017;-75
2022/07/11 05:59:00;;;;;;;3.75;1.17;;;21.90;99.90;;;;;;5077734;28;20016;-74
2022/07/11 06:01:26;;;;;;;4.18;1.60;;;21.90;99.90;;;;;;5075730;28;20046;-76
2022/07/11 06:03:52;;;;;;;5.75;1.65;;;21.90;99.90;;;;;;5078577;28;20028;-74
2022/07/11 06:06:18;;;;;;;1.35;1.25;;;21.90;99.90;;;;;;5086552;28;20089;-74
2022/07/11 06:08:44;;;;;;;3.60;2.00;;;21.80;99.90;;;;;;5089616;28;20410;-73
2022/07/11 06:11:11;;;;;;;5.80;1.90;;;21.90;99.90;;;;;;5077853;28;20020;-73
2022/07/11 06:13:38;;;;;;;4.15;1.65;;;21.90;99.90;;;;;;5088447;28;20028;-73
2022/07/11 06:16:06;;;;;;;2.58;1.55;;;22.00;99.90;;;;;;5087939;28;20020;-76
2022/07/11 06:18:32;;;;;;;1.90;1.35;;;22.00;99.90;;;;;;5084398;28;20098;-74
2022/07/11 06:20:58;;;;;;;6.85;1.50;;;22.00;99.90;;;;;;5077224;28;20035;-77
2022/07/11 06:23:24;;;;;;;1.65;1.05;;;22.10;99.90;;;;;;5082925;28;20021;-72
2022/07/11 06:25:50;;;;;;;0.93;0.93;;;22.40;99.90;;;;;;5070751;28;20580;-73
2022/07/11 06:28:16;;;;;;;3.83;2.22;;;22.50;99.90;;;;;;5078868;28;20023;-71
2022/07/11 06:30:41;;;;;;;3.17;1.33;;;22.50;99.90;;;;;;5075198;28;20035;-73
2022/07/11 06:33:07;;;;;;;4.10;1.10;;;22.50;99.90;;;;;;5085730;28;20081;-73
2022/07/11 06:35:34;;;;;;;1.88;1.13;;;22.60;99.90;;;;;;5078294;28;20106;-73
2022/07/11 06:38:00;;;;;;;3.15;0.82;;;22.70;99.90;;;;;;5087399;28;20023;-73
2022/07/11 06:40:26;;;;;;;2.65;1.10;;;22.90;99.90;;;;;;5079416;28;20035;-72
2022/07/11 06:42:52;;;;;;;4.07;1.40;;;23.10;99.90;;;;;;5085534;28;20024;-73
2022/07/11 06:45:18;;;;;;;4.30;1.27;;;23.40;99.90;;;;;;5079792;28;20020;-72
2022/07/11 06:47:43;;;;;;;2.88;1.08;;;23.50;99.90;;;;;;5080052;28;20025;-73
2022/07/11 06:50:10;;;;;;;5.45;1.73;;;23.70;99.90;;;;;;5083698;28;20082;-72
2022/07/11 06:52:35;;;;;;;1.63;1.33;;;23.70;99.90;;;;;;5078670;28;20055;-73
2022/07/11 06:55:02;;;;;;;4.13;1.25;;;23.70;99.90;;;;;;5077233;28;20052;-73
2022/07/11 06:57:27;;;;;;;3.03;2.05;;;23.80;99.90;;;;;;5090387;28;20043;-73
2022/07/11 06:59:53;;;;;;;5.05;1.70;;;23.70;99.90;;;;;;5089701;28;20472;-72
2022/07/11 07:02:19;;;;;;;5.45;1.33;;;23.80;99.90;;;;;;5089042;28;20077;-72
2022/07/11 07:04:45;;;;;;;3.50;0.63;;;23.70;99.90;;;;;;5090391;28;20468;-73
2022/07/11 07:07:11;;;;;;;0.85;0.80;;;23.60;99.90;;;;;;5090261;28;20058;-71
2022/07/11 07:09:37;;;;;;;1.65;1.35;;;23.70;99.90;;;;;;5091647;28;20032;-71
2022/07/11 07:12:03;;;;;;;2.40;0.90;;;23.70;99.90;;;;;;5090719;28;20402;-72
2022/07/11 07:14:28;;;;;;;1.95;1.55;;;23.80;99.90;;;;;;5084391;28;20028;-73
2022/07/11 07:16:54;;;;;;;1.88;1.38;;;23.70;99.90;;;;;;5090075;28;20103;-74
2022/07/11 07:19:20;;;;;;;1.40;0.85;;;23.80;99.90;;;;;;5090039;28;20025;-71
2022/07/11 07:21:47;;;;;;;1.13;0.88;;;23.80;99.90;;;;;;5090211;28;20389;-73
2022/07/11 07:24:13;;;;;;;3.88;1.42;;;23.60;99.90;;;;;;5088725;28;20036;-73
2022/07/11 07:26:39;;;;;;;3.13;1.90;;;23.80;99.90;;;;;;5088804;28;20024;-72
2022/07/11 07:29:04;;;;;;;1.42;1.25;;;24.20;99.90;;;;;;5089669;28;20473;-71
2022/07/11 07:31:30;;;;;;;2.15;1.05;;;24.30;99.90;;;;;;5090146;28;20632;-71
2022/07/11 07:33:56;;;;;;;4.90;1.13;;;24.10;99.90;;;;;;5088708;28;20111;-72
2022/07/11 07:36:22;;;;;;;5.15;1.45;;;24.00;99.90;;;;;;5089926;28;20507;-74
2022/07/11 07:38:48;;;;;;;4.28;1.30;;;24.10;99.90;;;;;;5090010;28;20485;-72
2022/07/11 07:41:15;;;;;;;1.80;0.75;;;24.10;99.90;;;;;;5089950;28;20024;-72
2022/07/11 07:43:41;;;;;;;1.25;0.98;;;24.20;99.90;;;;;;5087473;28;20119;-73
2022/07/11 07:46:10;;;;;;;3.97;1.25;;;24.50;99.90;;;;;;5072241;28;20066;-73
2022/07/11 07:48:37;;;;;;;2.70;1.60;;;24.60;99.90;;;;;;5068174;28;20048;-73
2022/07/11 07:51:03;;;;;;;1.83;1.13;;;24.60;99.90;;;;;;5069441;28;20569;-73
2022/07/11 07:53:29;;;;;;;4.15;1.10;;;24.40;99.90;;;;;;5069752;28;20052;-72
2022/07/11 07:55:55;;;;;;;6.15;1.65;;;24.50;99.90;;;;;;5069614;28;20067;-72
2022/07/11 07:58:21;;;;;;;4.88;1.05;;;24.60;99.90;;;;;;5068123;28;20116;-74
2022/07/11 08:03:31;;;;;;;2.28;1.10;;;24.90;99.90;;;;;;5069817;28;20071;-72
2022/07/11 08:05:57;;;;;;;3.20;1.90;;;25.10;99.90;;;;;;5069484;28;20048;-73
2022/07/11 08:08:22;;;;;;;6.10;1.25;;;25.50;99.90;;;;;;5069496;28;20024;-71
2022/07/11 08:10:48;;;;;;;2.63;0.98;;;25.60;99.90;;;;;;5069466;28;20025;-72
2022/07/11 08:13:14;;;;;;;6.22;1.92;;;25.60;99.90;;;;;;5072981;28;20020;-74
2022/07/11 08:15:40;;;;;;;2.03;1.47;;;25.60;99.90;;;;;;5074633;28;20118;-72
2022/07/11 08:18:05;;;;;;;2.03;1.30;;;25.70;99.90;;;;;;5075690;28;20021;-74
2022/07/11 08:20:31;;;;;;;5.30;1.73;;;25.70;99.90;;;;;;5071504;28;20021;-71
2022/07/11 08:23:01;;;;;;;2.30;1.23;;;25.50;99.90;;;;;;5077565;28;20049;-73
2022/07/11 08:25:27;;;;;;;1.65;1.10;;;25.50;99.90;;;;;;5086704;28;20493;-73
2022/07/11 08:27:53;;;;;;;6.25;2.10;;;25.70;99.90;;;;;;5082268;28;20020;-73
2022/07/11 08:30:19;;;;;;;2.58;1.70;;;25.60;99.90;;;;;;5083264;28;20086;-72
2022/07/11 08:32:45;;;;;;;3.47;1.55;;;25.60;99.90;;;;;;5082341;28;20033;-74
2022/07/11 08:35:11;;;;;;;5.13;1.27;;;25.50;99.90;;;;;;5077871;28;20040;-73
2022/07/11 08:37:37;;;;;;;3.25;1.48;;;25.60;99.90;;;;;;5071736;28;20434;-75
2022/07/11 08:40:03;;;;;;;2.17;1.75;;;25.70;99.90;;;;;;5072719;28;20044;-72
2022/07/11 08:42:30;;;;;;;6.40;2.88;;;25.60;99.90;;;;;;5071578;28;20111;-73
2022/07/11 08:44:58;;;;;;;1.98;0.98;;;25.90;99.90;;;;;;5076628;28;20032;-73
2022/07/11 08:47:24;;;;;;;4.80;1.48;;;26.20;99.90;;;;;;5084853;28;20020;-74
2022/07/11 08:49:52;;;;;;;6.35;1.20;;;26.20;99.90;;;;;;5091318;28;20039;-72
2022/07/11 08:52:19;;;;;;;1.65;1.00;;;26.30;99.90;;;;;;5093123;28;20097;-74
2022/07/11 08:54:45;;;;;;;3.47;1.02;;;26.20;99.90;;;;;;5091206;28;20394;-70
2022/07/11 08:57:13;;;;;;;2.45;1.45;;;26.00;99.90;;;;;;5091049;28;20028;-72
2022/07/11 08:59:41;;;;;;;1.13;1.02;;;25.90;99.90;;;;;;5090946;28;20024;-72
2022/07/11 09:02:09;;;;;;;4.72;1.27;;;25.90;99.90;;;;;;5092310;28;20023;-73
2022/07/11 09:04:35;;;;;;;1.85;1.27;;;25.60;99.90;;;;;;5092531;28;20561;-72
2022/07/11 09:07:01;;;;;;;3.63;1.73;;;25.60;99.90;;;;;;5092622;28;20111;-72
2022/07/11 09:09:30;;;;;;;5.68;1.73;;;25.90;99.90;;;;;;5091999;28;20050;-72
2022/07/11 09:11:57;;;;;;;5.45;2.35;;;26.00;99.90;;;;;;5091127;28;20028;-73
2022/07/11 09:14:31;;;;;;;2.50;1.08;;;26.30;99.90;;;;;;5092864;28;20031;-73
2022/07/11 09:17:01;;;;;;;1.98;1.33;;;26.50;99.90;;;;;;5089976;28;20434;-73
2022/07/11 09:19:30;;;;;;;2.70;1.52;;;26.50;99.90;;;;;;5070275;28;20056;-72
2022/07/11 09:28:01;;;;;;;11.67;1.73;;;27.50;99.90;;;;;;5072109;28;20595;-73
2022/07/11 09:30:32;;;;;;;3.33;1.55;;;27.90;99.90;;;;;;5071651;28;20640;-74
2022/07/11 09:33:05;;;;;;;;;;;27.40;99.90;;;;;;5072025;28;20048;-72
2022/07/11 09:35:35;;;;;;;1.17;1.08;;;27.70;99.90;;;;;;5070109;28;19995;-75
2022/07/11 09:38:06;;;;;;;1.63;1.25;;;27.60;99.90;;;;;;5071707;28;20082;-72
2022/07/11 09:40:32;;;;;;;4.00;1.30;;;28.00;99.90;;;;;;5070145;28;20043;-74
2022/07/11 09:42:59;;;;;;;4.82;1.58;;;28.20;99.90;;;;;;5071310;28;20027;-73
2022/07/11 09:45:27;;;;;;;1.67;1.33;;;28.20;99.90;;;;;;5071324;28;20062;-75
2022/07/11 09:48:01;;;;;;;5.53;1.52;;;28.20;99.90;;;;;;5079083;28;20039;-75
2022/07/11 09:50:29;;;;;;;2.47;1.30;;;28.40;99.90;;;;;;5071121;28;20044;-75
2022/07/11 09:53:11;;;;;;;2.92;2.05;;;28.60;99.90;;;;;;5071785;28;20024;-74
2022/07/11 09:55:39;;;;;;;5.20;1.90;;;29.00;99.90;;;;;;5071187;28;20385;-73
2022/07/11 09:58:06;;;;;;;5.18;1.50;;;28.80;99.90;;;;;;5071286;28;20035;-72
2022/07/11 10:00:35;;;;;;;3.15;1.73;;;29.00;99.90;;;;;;5070826;28;20568;-72
2022/07/11 10:03:01;;;;;;;3.67;1.75;;;29.10;99.90;;;;;;5071331;28;20051;-74
2022/07/11 10:05:28;;;;;;;5.93;1.58;;;29.10;99.90;;;;;;5071555;28;20028;-74
2022/07/11 10:07:55;;;;;;;2.45;1.50;;;29.00;99.90;;;;;;5087187;28;20417;-75
2022/07/11 10:10:21;;;;;;;3.72;1.30;;;28.90;99.90;;;;;;5069436;28;20028;-74
2022/07/11 10:12:47;;;;;;;1.63;1.52;;;28.40;99.90;;;;;;5070598;28;20067;-73
2022/07/11 10:15:22;;;;;;;5.55;1.92;;;28.00;99.90;;;;;;5069456;28;20510;-72
2022/07/11 10:18:06;;;;;;;1.85;1.20;;;27.90;99.90;;;;;;5075866;28;20040;-72
2022/07/11 10:20:53;;;;;;;4.38;1.52;;;27.90;99.90;;;;;;5090781;28;20484;-74
2022/07/11 10:23:19;;;;;;;2.95;1.20;;;28.00;99.90;;;;;;5073508;28;20035;-73
2022/07/11 10:26:03;;;;;;;1.65;1.55;;;28.10;99.90;;;;;;5084934;28;20009;-73
2022/07/11 10:28:42;;;;;;;4.00;1.10;;;28.30;99.90;;;;;;5069640;28;20021;-74
2022/07/11 10:31:22;;;;;;;2.97;1.33;;;28.50;99.90;;;;;;5069618;28;20028;-71
2022/07/11 10:34:03;;;;;;;3.28;1.65;;;28.60;99.90;;;;;;5070374;28;20025;-72
2022/07/11 10:36:31;;;;;;;1.27;1.23;;;28.60;99.90;;;;;;5069640;28;20097;-73
2022/07/11 10:39:27;;;;;;;3.85;1.70;;;28.50;99.90;;;;;;5070551;28;20031;-72
2022/07/11 10:41:54;;;;;;;3.95;1.60;;;28.40;99.90;;;;;;5069585;28;20414;-73
2022/07/11 10:44:20;;;;;;;7.28;1.38;;;28.20;99.90;;;;;;5070592;28;20021;-73
2022/07/11 10:46:46;;;;;;;3.00;1.67;;;28.20;99.90;;;;;;5070751;28;20078;-73
2022/07/11 10:49:12;;;;;;;2.85;2.10;;;28.50;99.90;;;;;;5086919;28;20055;-73
2022/07/11 10:51:44;;;;;;;2.60;2.05;;;28.50;99.90;;;;;;5070734;28;20032;-72
2022/07/11 10:54:19;;;;;;;;;;;28.50;99.90;;;;;;5070963;28;20501;-73
2022/07/11 10:56:44;;;;;;;2.42;1.58;;;28.60;99.90;;;;;;5070590;28;19999;-72
2022/07/11 10:59:15;;;;;;;3.10;1.50;;;28.50;99.90;;;;;;5068813;28;20117;-74
2022/07/11 11:02:02;;;;;;;2.00;1.30;;;28.10;99.90;;;;;;5070509;28;20031;-74
2022/07/11 11:04:44;;;;;;;4.63;1.63;;;27.80;99.90;;;;;;5069670;28;20039;-73
2022/07/11 11:07:39;;;;;;;4.90;1.30;;;27.80;99.90;;;;;;5070374;28;20031;-72
2022/07/11 11:10:27;;;;;;;3.83;1.70;;;27.60;99.90;;;;;;5068623;28;20110;-73
2022/07/11 11:13:14;;;;;;;2.17;1.27;;;27.40;99.90;;;;;;5069236;28;20028;-72
2022/07/11 11:15:48;;;;;;;1.52;1.33;;;27.20;99.90;;;;;;5069145;28;20028;-76
2022/07/11 11:18:26;;;;;;;1.70;1.27;;;27.20;99.90;;;;;;5080625;28;20096;-73
2022/07/11 11:21:00;;;;;;;1.85;1.10;;;26.90;99.90;;;;;;5090476;28;20020;-73
2022/07/11 11:24:08;;;;;;;8.45;3.40;;;26.70;99.90;;;;;;5089052;28;20077;-75
2022/07/11 11:26:48;;;;;;;5.20;2.95;;;26.60;99.90;;;;;;5090378;28;20582;-74
2022/07/11 11:29:23;;;;;;;3.25;1.75;;;26.70;99.90;;;;;;5088961;28;20052;-75
2022/07/11 11:31:54;;;;;;;3.67;1.95;;;26.70;99.90;;;;;;5091176;28;20024;-75
2022/07/11 11:34:20;;;;;;;4.28;1.70;;;26.70;99.90;;;;;;5090838;28;20162;-75
2022/07/11 11:36:53;;;;;;;2.35;1.33;;;26.70;99.90;;;;;;5090447;28;20112;-73
2022/07/11 11:39:31;;;;;;;1.23;1.02;;;26.90;99.90;;;;;;5089067;28;20051;-74
2022/07/11 11:42:17;;;;;;;1.80;1.15;;;27.00;99.90;;;;;;5090232;28;20039;-74
2022/07/11 11:44:49;;;;;;;3.42;1.67;;;27.20;99.90;;;;;;5090994;28;20021;-75
2022/07/11 11:47:15;;;;;;;4.75;1.75;;;27.40;99.90;;;;;;5090482;28;20035;-75
2022/07/11 11:49:43;;;;;;;2.05;1.52;;;27.40;99.90;;;;;;5093277;28;20028;-74
2022/07/11 11:52:10;;;;;;;1.73;1.00;;;27.30;99.90;;;;;;5092185;28;20023;-74
2022/07/11 11:54:37;;;;;;;6.70;1.70;;;27.50;99.90;;;;;;5079662;28;20055;-74
2022/07/11 11:57:12;;;;;;;2.38;1.70;;;27.50;99.90;;;;;;5096060;28;20031;-75
2022/07/11 11:59:41;;;;;;;4.07;1.20;;;27.50;99.90;;;;;;5095024;28;20044;-74
2022/07/11 12:02:08;;;;;;;1.98;1.15;;;27.30;99.90;;;;;;5094897;28;20107;-73
2022/07/11 12:04:36;;;;;;;4.43;1.65;;;27.10;99.90;;;;;;5095467;28;20070;-77
2022/07/11 12:07:03;;;;;;;4.10;1.55;;;26.90;99.90;;;;;;5094663;28;20180;-76
2022/07/11 12:09:47;;;;;;;1.20;1.10;;;26.70;99.90;;;;;;5092714;28;20028;-73
2022/07/11 12:13:03;;;;;;;2.65;1.75;;;26.70;99.90;;;;;;5093402;28;20024;-73
2022/07/11 12:16:38;;;;;;;3.55;1.17;;;26.70;99.90;;;;;;5096792;28;20119;-73
2022/07/11 12:18:20;;;;;;;2.72;1.25;;;27.00;99.90;;;;;;5090833;28;20036;-73
2022/07/11 12:20:45;;;;;;;2.47;1.42;;;27.20;99.90;;;;;;5088624;28;20036;-74
2022/07/11 12:23:15;;;;;;;3.60;1.42;;;27.20;99.90;;;;;;5092547;28;20093;-73
2022/07/11 12:25:41;;;;;;;3.03;1.70;;;27.40;99.90;;;;;;5081604;28;20020;-75
2022/07/11 12:28:08;;;;;;;6.03;1.55;;;27.50;99.90;;;;;;5092680;28;20027;-74
2022/07/11 12:30:35;;;;;;;4.45;2.22;;;27.50;99.90;;;;;;5090241;28;20021;-73
2022/07/11 12:33:06;;;;;;;2.35;1.45;;;27.40;99.90;;;;;;5072473;28;20020;-72
2022/07/11 12:35:32;;;;;;;4.68;2.28;;;27.40;99.90;;;;;;5073925;28;20402;-74
2022/07/11 12:37:58;;;;;;;11.00;2.55;;;27.30;99.90;;;;;;5074192;28;20060;-74
2022/07/11 12:40:23;;;;;;;5.28;1.65;;;27.30;99.90;;;;;;5072361;28;20032;-73
2022/07/11 12:42:49;;;;;;;1.60;1.50;;;27.40;99.90;;;;;;5075912;28;20025;-72
2022/07/11 12:45:17;;;;;;;7.93;1.77;;;27.30;99.90;;;;;;5080830;28;20099;-73
2022/07/11 12:47:48;;;;;;;3.58;1.90;;;27.10;99.90;;;;;;5081016;28;20538;-73
2022/07/11 12:50:26;;;;;;;4.28;1.60;;;26.90;99.90;;;;;;5082154;28;20028;-71
2022/07/11 12:52:54;;;;;;;7.82;1.88;;;26.90;99.90;;;;;;5083665;28;20033;-73
2022/07/11 12:55:23;;;;;;;2.53;1.73;;;27.00;99.90;;;;;;5081718;28;20105;-72
2022/07/11 12:58:04;;;;;;;8.40;2.25;;;26.90;99.90;;;;;;5079303;28;20028;-73
2022/07/11 13:00:31;;;;;;;2.97;1.60;;;26.90;99.90;;;;;;5098705;28;20031;-72
2022/07/11 13:02:58;;;;;;;4.28;1.85;;;26.90;99.90;;;;;;5105490;28;20020;-74
2022/07/11 13:05:24;;;;;;;6.93;1.30;;;26.90;99.90;;;;;;5105614;28;20489;-73
2022/07/11 13:10:53;;;;;;;4.47;1.25;;;26.90;99.90;;;;;;5093381;28;20051;-73